• Join FlightAware (Why Join?)
  • Login
  • US Flag 
05:12PM EDT


 

Airport Tracker/Info


-or-


 

Live Flight TrackerFlight Track Log ✈ SWR487 ✈ 25-Aug-2013 ✈ EGLC / LCY - LFSB / EAP

Flight Track Log - Related Links

Times and Time Zones

All times are in EDT time to prevent confusion due to time zone crossing. See the SWR487 flight status page for this flight to view local times or setup timezone preferences in your user account.

Time Position Orientation Groundspeed Altitude Reporting Facility
EDT Latitude Longitude Course Direction KTS MPH feet Rate Location/Type
02:56PM 51.5050 0.0753 109° East 1 1 400  Level FlightAware UK
02:56PM 51.5040 0.0800 90° East 118 136 700 2,040 Climbing FlightAware
02:56PM 51.5040 0.1000 90° East 115 132 1,400 1,500 Climbing FlightAware
02:57PM 51.5040 0.1170 90° East 127 146 1,700 780 Climbing FlightAware
02:57PM 51.5060 0.1260 70° East 133 153 1,800 840 Climbing FlightAware
02:57PM 51.5070 0.1310 72° East 136 157 1,900 420 Climbing FlightAware
02:57PM 51.5090 0.1340 43° Northeast 144 166 1,900 780 Level FlightAware
02:57PM 51.5150 0.1410 36° Northeast 147 169 2,100 1,320 Climbing FlightAware
02:57PM 51.5260 0.1480 22° Northeast 160 184 2,400 1,200 Climbing FlightAware
02:58PM 51.5420 0.1570 19° North 177 204 2,800 1,200 Climbing FlightAware
02:58PM 51.5440 0.1590 32° Northeast 187 215 2,900 600 Climbing FlightAware
02:58PM 51.5490 0.1640 32° Northeast 198 228 2,900 420 Level FlightAware
02:58PM 51.5510 0.1700 62° Northeast 208 239 3,000 300 Climbing FlightAware
02:58PM 51.5560 0.1940 71° East 240 276 3,000 720 Level FlightAware
02:59PM 51.5580 0.2330 85° East 253 291 3,400 1,800 Climbing FlightAware
02:59PM 51.5590 0.2690 87° East 253 291 4,200 2,520 Climbing FlightAware
02:59PM 51.5560 0.3060 97° East 251 289 5,100 2,400 Climbing FlightAware
03:00PM 51.5490 0.3400 108° East 256 295 5,800 1,320 Climbing FlightAware
03:00PM 51.5380 0.3760 116° Southeast 255 293 6,000 120 Climbing FlightAware
03:00PM 51.5260 0.4220 113° Southeast 255 293 5,900 -180 Descending FlightAware
03:01PM 51.5160 0.4550 116° Southeast 255 293 5,900  Level FlightAware
03:01PM 51.5090 0.4830 112° Southeast 254 292 5,900  Level FlightAware
03:01PM 51.4960 0.5250 116° Southeast 255 293 5,900  Level FlightAware
03:02PM 51.4840 0.5680 114° Southeast 253 291 5,900  Level FlightAware
03:02PM 51.4790 0.5860 114° Southeast 253 291 5,900 780 Level FlightAware
03:02PM 51.4680 0.6220 116° Southeast 252 290 6,300 1,920 Climbing FlightAware
03:03PM 51.4524 0.6759 116° Southeast 280 322 7,500 2,160 Climbing FlightAware UK
03:03PM 51.4530 0.6720 116° Southeast 259 298 7,400 1,560 Descending FlightAware
03:03PM 51.4460 0.6980 113° Southeast 263 303 7,900 1,560 Climbing FlightAware
03:04PM 51.4260 0.7620 117° Southeast 268 308 8,700 1,320 Climbing FlightAware
03:04PM 51.4220 0.7790 111° Southeast 270 311 8,900 1,860 Climbing FlightAware
03:04PM 51.4080 0.8240 116° Southeast 272 313 9,800 1,560 Climbing FlightAware
03:05PM 51.3881 0.8956 116° Southeast 310 357 10,500 1,200 Climbing FlightAware UK
03:05PM 51.3870 0.9030 116° Southeast 296 341 10,600 780 Climbing FlightAware
03:05PM 51.3752 0.9742 116° Southeast 330 380 11,000 1,020 Climbing FlightAware UK
03:06PM 51.3720 0.9935 116° Southeast 316 364 11,300 1,680 Climbing FlightAware ADS-B
03:06PM 51.3607 1.0621 105° East 323 372 12,100 1,500 Climbing FlightAware ADS-B
03:07PM 51.3487 1.1341 105° East 326 375 12,900 1,620 Climbing FlightAware ADS-B
03:07PM 51.3373 1.2064 104° East 325 374 13,800 1,500 Climbing FlightAware ADS-B
03:08PM 51.3259 1.2767 105° East 329 379 14,400 1,260 Climbing FlightAware ADS-B
03:08PM 51.3138 1.3521 105° East 352 405 15,100 1,260 Climbing FlightAware UK
03:09PM 51.3009 1.4301 105° East 329 379 15,800 1,320 Climbing FlightAware ADS-B
03:09PM 51.2890 1.5050 104° East 339 390 16,600 1,260 Climbing FlightAware
03:10PM 51.2740 1.5950 105° East 339 390 17,300 1,140 Climbing FlightAware
03:10PM 51.2620 1.6680 105° East 343 395 17,900 1,020 Climbing FlightAware
03:11PM 51.2460 1.7650 105° East 347 399 18,500 900 Climbing FlightAware
03:12PM 51.2280 1.8730 105° East 354 407 19,200 960 Climbing FlightAware
03:12PM 51.2140 1.9540 105° East 356 410 19,700 960 Climbing FlightAware
03:13PM 51.1990 2.0470 104° East 358 412 20,300 900 Climbing FlightAware
03:13PM 51.1830 2.1370 106° East 361 415 20,800 780 Climbing FlightAware
03:14PM 51.1637 2.2369 106° East 388 447 21,300 900 Climbing FlightAware UK
03:14PM 51.1620 2.2420 106° East 367 422 21,400 780 Climbing FlightAware
03:15PM 51.1366 2.3256 106° East 390 449 21,800 600 Climbing FlightAware UK
03:15PM 51.1360 2.3260 106° East 369 425 21,800 660 Level FlightAware
03:15PM 51.1050 2.4240 117° Southeast 375 432 22,300 660 Climbing FlightAware
03:16PM 51.0850 2.4910 115° Southeast 375 432 22,600 600 Climbing FlightAware
03:16PM 51.0530 2.5940 116° Southeast 378 435 23,000 720 Climbing FlightAware
03:17PM 51.0240 2.6760 119° Southeast 380 437 23,500 660 Climbing FlightAware
03:18PM 50.9870 2.7700 119° Southeast 383 441 23,800 420 Climbing FlightAware
03:18PM 50.9817 2.7853 119° Southeast 402 463 23,800 480 Level FlightAware UK
03:18PM 50.9570 2.8470 119° Southeast 384 442 24,100 660 Climbing FlightAware
03:18PM 50.9476 2.8715 119° Southeast 404 465 24,200 660 Climbing FlightAware UK
03:19PM 50.9186 2.9444 119° Southeast 404 465 24,500 660 Climbing FlightAware UK
03:19PM 50.9160 2.9510 119° Southeast 385 443 24,600 540 Climbing FlightAware
03:20PM 50.8770 3.0500 122° Southeast 390 449 25,000 600 Climbing FlightAware
03:20PM 50.8370 3.1490 123° Southeast 390 449 25,400 540 Climbing FlightAware
03:21PM 50.8010 3.2410 123° Southeast 390 449 25,700 420 Climbing FlightAware
03:21PM 50.7978 3.2498 123° Southeast 402 463 25,700 720 Level FlightAware UK
03:21PM 50.7689 3.3221 123° Southeast 400 460 26,100 840 Climbing FlightAware UK
03:21PM 50.7670 3.3280 123° Southeast 388 447 26,200 720 Climbing FlightAware
03:22PM 50.7320 3.4110 124° Southeast 386 444 26,600 660 Climbing FlightAware
03:23PM 50.7090 3.4700 122° Southeast 385 443 26,900 660 Climbing FlightAware
03:23PM 50.6760 3.5510 123° Southeast 383 441 27,300 720 Climbing FlightAware
03:24PM 50.6420 3.6380 122° Southeast 381 438 27,800 780 Climbing FlightAware
03:24PM 50.6060 3.7260 123° Southeast 379 436 28,300 720 Climbing FlightAware
03:25PM 50.5710 3.8120 123° Southeast 376 433 28,700 660 Climbing FlightAware
03:25PM 50.5420 3.8830 123° Southeast 374 430 29,100 720 Climbing FlightAware
03:26PM 50.5070 3.9670 123° Southeast 371 427 29,600 720 Climbing FlightAware
03:27PM 50.4760 4.0410 123° Southeast 368 423 30,000 660 Climbing FlightAware
03:27PM 50.4469 4.1149 123° Southeast 376 433 30,300 720 Climbing FlightAware UK
03:27PM 50.4460 4.1150 123° Southeast 365 420 30,400 540 Climbing FlightAware
03:28PM 50.4110 4.2010 123° Southeast 364 419 30,700 480 Climbing FlightAware
03:28PM 50.3840 4.2660 123° Southeast 364 419 31,000 360 Climbing FlightAware
03:28PM 50.3809 4.2744 123° Southeast 378 435 30,900  Descending FlightAware UK
03:29PM 50.3535 4.3415 123° Southeast 1 1 31,000 120 Climbing FlightAware UK
03:29PM 50.3500 4.3480 123° Southeast 371 427 31,000  Level FlightAware
03:29PM 50.3181 4.4203 123° Southeast 1 1 31,000  Level FlightAware UK
03:29PM 50.3170 4.4280 123° Southeast 379 436 31,000  Level FlightAware
03:30PM 50.2790 4.5180 123° Southeast 383 441 31,000  Level FlightAware
03:31PM 50.2380 4.6140 124° Southeast 379 436 31,000  Level FlightAware
03:31PM 50.2040 4.6970 123° Southeast 379 436 31,000  Level FlightAware
03:32PM 50.1720 4.7720 124° Southeast 379 436 31,000  Level FlightAware
03:33PM 50.1410 4.8470 123° Southeast 378 435 31,000  Level FlightAware
03:33PM 50.1070 4.9270 123° Southeast 379 436 31,000  Level FlightAware
03:33PM 50.1042 4.9301 123° Southeast 1 1 31,000  Level FlightAware UK
03:34PM 50.0680 5.0180 124° Southeast 381 438 31,000  Level FlightAware
03:34PM 50.0400 5.0840 123° Southeast 381 438 31,000  Level FlightAware
03:35PM 50.0050 5.1660 124° Southeast 378 435 31,000  Level FlightAware
03:35PM 49.9700 5.2450 125° Southeast 376 433 31,000  Level FlightAware
03:36PM 49.9360 5.3250 123° Southeast 373 429 31,000  Level FlightAware
03:37PM 49.9030 5.4040 123° Southeast 373 429 31,000  Level FlightAware
03:37PM 49.8690 5.4850 123° Southeast 374 430 31,000  Level FlightAware
03:38PM 49.8450 5.5460 121° Southeast 376 433 31,000  Level FlightAware
03:38PM 49.8040 5.6450 123° Southeast 379 436 31,000  Level FlightAware
03:39PM 49.7720 5.7230 122° Southeast 381 438 31,000  Level FlightAware
03:40PM 49.7340 5.8150 123° Southeast 380 437 31,000  Level FlightAware
03:40PM 49.7050 5.8830 123° Southeast 378 435 31,000  Level FlightAware
03:41PM 49.6700 5.9700 122° Southeast 377 434 31,000  Level FlightAware
03:41PM 49.6400 6.0420 123° Southeast 377 434 31,000  Level FlightAware
03:42PM 49.6070 6.1220 122° Southeast 378 435 31,000  Level FlightAware
03:42PM 49.5780 6.1950 121° Southeast 373 429 31,000  Level FlightAware
03:43PM 49.5410 6.2460 138° Southeast 381 438 31,000  Level FlightAware
03:44PM 49.4810 6.2970 151° Southeast 383 441 31,000  Level FlightAware
03:44PM 49.4260 6.3440 151° Southeast 389 448 31,000  Level FlightAware
03:45PM 49.3730 6.3880 152° Southeast 391 450 31,000  Level FlightAware
03:45PM 49.3140 6.4390 151° Southeast 392 451 31,000  Level FlightAware
03:46PM 49.2570 6.4880 151° Southeast 392 451 31,000  Level FlightAware
03:46PM 49.2020 6.5350 151° Southeast 391 450 31,000  Level FlightAware
03:47PM 49.1480 6.5810 151° Southeast 390 449 31,000  Level FlightAware
03:48PM 49.0890 6.6180 158° South 400 460 31,000  Level FlightAware
03:48PM 49.0360 6.6250 175° South 404 465 31,000  Level FlightAware
03:49PM 48.9700 6.6580 162° South 395 455 31,000  Level FlightAware
03:49PM 48.9050 6.6990 157° South 394 453 31,000 -660 Level FlightAware
03:50PM 48.8420 6.7380 158° South 394 453 30,200 -1,680 Descending FlightAware
03:51PM 48.7870 6.7730 157° South 394 453 29,100 -2,220 Descending FlightAware
03:51PM 48.7300 6.8070 159° South 397 457 27,800 -2,340 Descending FlightAware
03:52PM 48.6760 6.8410 157° South 398 458 26,600 -2,520 Descending FlightAware
03:52PM 48.6140 6.8780 158° South 396 456 25,000 -2,280 Descending FlightAware
03:53PM 48.5590 6.9120 158° South 391 450 23,700 -2,340 Descending FlightAware
03:53PM 48.4980 6.9480 159° South 351 404 22,200 -2,220 Descending FlightAware
03:54PM 48.4420 6.9830 157° South 339 390 20,900 -1,920 Descending FlightAware
03:55PM 48.3940 7.0120 158° South 338 389 19,800 -1,980 Descending FlightAware
03:55PM 48.3470 7.0400 158° South 331 381 18,700 -1,980 Descending FlightAware
03:56PM 48.2920 7.0740 158° South 330 380 17,400 -2,040 Descending FlightAware
03:57PM 48.2400 7.1060 158° South 317 365 16,200 -1,980 Descending FlightAware
03:57PM 48.1880 7.1360 159° South 293 337 14,900 -1,980 Descending FlightAware
03:58PM 48.1420 7.1690 154° Southeast 272 313 13,600 -1,680 Descending FlightAware
03:58PM 48.1300 7.1980 122° Southeast 262 302 13,300 -1,140 Descending FlightAware
03:59PM 48.1120 7.2750 109° East 261 300 12,500 -1,080 Descending FlightAware
03:59PM 48.1000 7.3160 114° Southeast 257 296 12,100 -1,440 Descending FlightAware
04:00PM 48.0640 7.3580 142° Southeast 251 289 11,000 -1,860 Descending FlightAware
04:00PM 48.0280 7.3910 148° Southeast 244 281 9,900 -1,860 Descending FlightAware
04:01PM 48.0070 7.4090 150° Southeast 247 284 9,300 -1,800 Descending FlightAware
04:01PM 47.9870 7.4270 149° Southeast 247 284 8,700 -1,500 Descending FlightAware
04:01PM 47.9680 7.4430 151° Southeast 243 280 8,300 -1,320 Descending FlightAware
04:02PM 47.9480 7.4610 149° Southeast 242 278 7,800 -1,440 Descending FlightAware
04:02PM 47.9190 7.4860 150° Southeast 248 285 7,100 -1,440 Descending FlightAware
04:02PM 47.9070 7.4950 153° Southeast 241 277 6,900 -1,500 Descending FlightAware
04:03PM 47.8950 7.4970 174° South 239 275 6,600 -1,500 Descending FlightAware
04:03PM 47.8850 7.4920 199° South 242 278 6,400 -1,200 Descending FlightAware
04:03PM 47.8760 7.4840 211° Southwest 231 266 6,200 -1,200 Descending FlightAware
04:03PM 47.8700 7.4710 235° Southwest 231 266 6,000 -1,020 Descending FlightAware
04:03PM 47.8620 7.4470 244° Southwest 220 253 5,700 -1,080 Descending FlightAware
04:04PM 47.8530 7.4150 247° West 212 244 5,300 -1,080 Descending FlightAware
04:04PM 47.8460 7.3900 247° West 197 227 5,000 -840 Descending FlightAware
04:05PM 47.8340 7.3620 237° Southwest 189 217 4,700 -540 Descending FlightAware
04:05PM 47.8270 7.3580 201° Southwest 188 216 4,700 -360 Level FlightAware
04:05PM 47.8210 7.3580 180° South 197 227 4,600 -1,020 Descending FlightAware
04:05PM 47.8020 7.3780 145° Southeast 193 222 4,200 -960 Descending FlightAware
04:05PM 47.7960 7.3880 132° Southeast 190 219 4,100 -660 Descending FlightAware
04:06PM 47.7890 7.3940 150° Southeast 193 222 4,000 -240 Descending FlightAware
04:06PM 47.7710 7.4030 161° South 194 223 4,000 -180 Level FlightAware
04:06PM 47.7590 7.4120 153° Southeast 194 223 3,900 -840 Descending FlightAware
04:07PM 47.7420 7.4230 156° South 194 223 3,500 -1,080 Descending FlightAware
04:07PM 47.7260 7.4340 155° Southeast 185 213 3,200 -1,080 Descending FlightAware
04:07PM 47.7140 7.4420 156° South 180 207 2,900 -1,080 Descending FlightAware
04:07PM 47.6980 7.4530 155° Southeast 181 208 2,600 -540 Descending FlightAware
04:08PM 47.6730 7.4710 154° Southeast 163 188 2,400 -840 Descending FlightAware
04:08PM 47.6610 7.4790 156° South 124 143 1,800 -1,440 Descending FlightAware
04:09PM 47.6520 7.4860 152° Southeast 124 143 1,600 -720 Descending FlightAware
04:09PM 47.6410 7.4930 157° South 128 147 1,400 -600 Descending FlightAware
04:09PM 47.6310 7.5010 152° Southeast 126 145 1,200 -780 Descending FlightAware
04:10PM 47.6190 7.5080 159° South 128 147 900 -360 Descending FlightAware
04:10PM 47.6040 7.5200 152° Southeast 114 131 900  Level FlightAware
04:13PM 47.5896 7.5299 155° Southeast  Level Estimated
04:14PM 47.5896 7.5299 42° Northeast  Level Estimated
04:15PM 47.5896 7.5299 42° Northeast  Level Estimated